Time;durP1;ratioP1;P1;durP2;ratioP2;P2;SDS_P1;SDS_P2;PMS_P1;PMS_P2;Temp;Humidity;BMP_temperature;BMP_pressure;BME280_temperature;BME280_humidity;BME280_pressure;Samples;Min_cycle;Max_cycle;Signal;HPM_P1;HPM_P2
2022/05/15 00:01:58;;;;;;;;;;;;;;;12.36;100.00;-25412.44;5092620;28;20019;-74
2022/05/15 00:04:24;;;;;;;;;;;;;;;12.35;100.00;-25412.16;5090695;28;20015;-74
2022/05/15 00:06:50;;;;;;;;;;;;;;;12.36;100.00;-25412.28;5090985;28;20291;-77
2022/05/15 00:09:16;;;;;;;;;;;;;;;12.30;100.00;-25412.59;5091379;28;20003;-74
2022/05/15 00:11:41;;;;;;;;;;;;;;;12.30;100.00;-25410.53;5090664;28;20338;-73
2022/05/15 00:14:07;;;;;;;;;;;;;;;12.27;100.00;-25411.56;5091372;28;19916;-74
2022/05/15 00:16:32;;;;;;;;;;;;;;;12.28;100.00;-25411.88;5092409;28;19916;-74
2022/05/15 00:18:58;;;;;;;;;;;;;;;12.18;100.00;-25409.22;5090540;28;20015;-76
2022/05/15 00:21:24;;;;;;;;;;;;;;;12.15;100.00;-25408.34;5090686;28;19951;-74
2022/05/15 00:23:49;;;;;;;;;;;;;;;12.16;100.00;-25408.50;5089885;28;19928;-78
2022/05/15 00:26:14;;;;;;;;;;;;;;;12.15;100.00;-25408.34;5090093;28;20008;-76
2022/05/15 00:28:40;;;;;;;;;;;;;;;12.10;100.00;-25406.88;5090373;28;19970;-77
2022/05/15 00:31:05;;;;;;;;;;;;;;;12.11;100.00;-25407.19;5090639;28;19917;-77
2022/05/15 00:33:30;;;;;;;;;;;;;;;12.12;100.00;-25407.31;5089941;28;19917;-76
2022/05/15 00:35:56;;;;;;;;;;;;;;;12.03;100.00;-25402.94;5090415;28;19939;-76
2022/05/15 00:38:21;;;;;;;;;;;;;;;12.03;100.00;-25404.84;5090292;28;19920;-76
2022/05/15 00:40:47;;;;;;;;;;;;;;;12.03;100.00;-25404.84;5090252;28;19970;-76
2022/05/15 00:43:33;;;;;;;;;;;;;;;11.98;100.00;-25403.38;5091241;28;19912;-77
2022/05/15 00:45:58;;;;;;;;;;;;;;;11.99;100.00;-25403.66;5073921;28;19916;-76
2022/05/15 00:48:23;;;;;;;;;;;;;;;12.00;100.00;-25074.91;5091351;28;19923;-76
2022/05/15 00:50:49;;;;;;;;;;;;;;;12.00;100.00;-25074.91;5094444;28;19946;-77
2022/05/15 00:53:16;;;;;;;;;;;;;;;11.94;100.00;-25400.28;5095945;28;20588;-76
2022/05/15 00:55:44;;;;;;;;;;;;;;;11.90;100.00;-25401.19;5095641;28;20364;-77
2022/05/15 00:58:16;;;;;;;;;;;;;;;11.91;100.00;-25399.41;5095212;28;19954;-78
2022/05/15 01:00:41;;;;;;;;;;;;;;;11.84;100.00;-25399.44;5094588;28;19916;-76
2022/05/15 01:03:10;;;;;;;;;;;;;;;11.81;100.00;-25398.69;5094690;28;19924;-76
2022/05/15 01:05:37;;;;;;;;;;;;;;;11.84;100.00;-25399.56;5077425;28;20334;-77
2022/05/15 01:08:03;;;;;;;;;;;;;;;11.85;100.00;-25399.72;5094358;28;20018;-76
2022/05/15 01:10:29;;;;;;;;;;;;;;;11.88;100.00;-25400.44;5096030;28;19962;-78
2022/05/15 01:12:58;;;;;;;;;;;;;;;11.88;100.00;-25398.53;5077378;28;19916;-76
2022/05/15 01:15:25;;;;;;;;;;;;;;;11.89;100.00;-25071.75;5094359;28;20264;-78
2022/05/15 01:17:51;;;;;;;;;;;;;;;11.84;100.00;-24743.38;5094107;28;19923;-77
2022/05/15 01:20:19;;;;;;;;;;;;;;;11.79;100.00;-25069.16;5094065;28;19916;-77
2022/05/15 01:22:46;;;;;;;;;;;;;;;11.78;100.00;-25068.88;5076675;28;19917;-77
2022/05/15 01:25:13;;;;;;;;;;;;;;;11.77;100.00;-25068.59;5094444;28;19916;-77
2022/05/15 01:27:38;;;;;;;;;;;;;;;11.75;100.00;-25394.88;5093977;28;19923;-78
2022/05/15 01:30:05;;;;;;;;;;;;;;;11.71;100.00;-25393.84;5093482;28;19916;-76
2022/05/15 01:32:31;;;;;;;;;;;;;;;11.69;100.00;-25393.25;5094389;28;19916;-77
2022/05/15 01:34:57;;;;;;;;;;;;;;;11.68;100.00;-25392.97;5093874;28;19916;-78
2022/05/15 01:37:22;;;;;;;;;;;;;;;11.71;100.00;-24412.81;5076063;28;20015;-79
2022/05/15 01:39:47;;;;;;;;;;;;;;;11.71;100.00;-23758.66;5093673;28;19927;-77
2022/05/15 01:42:12;;;;;;;;;;;;;;;11.66;100.00;-23757.34;5076748;28;19931;-75
2022/05/15 01:44:38;;;;;;;;;;;;;;;11.67;100.00;-23430.50;5093359;28;19971;-75
2022/05/15 01:47:03;;;;;;;;;;;;;;;11.69;100.00;-22449.53;5093764;28;20023;-74
2022/05/15 01:49:28;;;;;;;;;;;;;;;11.72;100.00;-22123.03;5093768;28;19920;-76
2022/05/15 01:51:54;;;;;;;;;;;;;;;11.64;100.00;-21466.75;5093806;28;20387;-77
2022/05/15 01:54:19;;;;;;;;;;;;;;;11.62;100.00;-21466.19;5093561;28;19917;-78
2022/05/15 01:56:44;;;;;;;;;;;;;;;11.57;100.00;-21792.25;5093511;28;19923;-77
2022/05/15 01:59:10;;;;;;;;;;;;;;;11.54;100.00;-22118.72;5093753;28;20003;-74
2022/05/15 02:01:35;;;;;;;;;;;;;;;11.54;100.00;-22118.72;5093318;28;20592;-76
2022/05/15 02:04:01;;;;;;;;;;;;;;;11.50;100.00;-22118.00;5093189;28;19939;-74
2022/05/15 02:06:28;;;;;;;;;;;;;;;11.49;100.00;-21790.63;5092255;28;19924;-76
2022/05/15 02:08:54;;;;;;;;;;;;;;;11.44;100.00;-21789.31;5092937;28;19935;-75
2022/05/15 02:11:19;;;;;;;;;;;;;;;11.41;100.00;-22442.91;5076351;28;20521;-76
2022/05/15 02:13:46;;;;;;;;;;;;;;;11.37;100.00;-22441.81;5092862;28;19925;-76
2022/05/15 02:16:11;;;;;;;;;;;;;;;11.30;100.00;-23421.25;5093600;28;19916;-76
2022/05/15 02:18:36;;;;;;;;;;;;;;;11.29;100.00;-24728.28;5075895;28;19943;-76
2022/05/15 02:21:01;;;;;;;;;;;;;;;11.26;100.00;-25380.97;5092975;28;19923;-76
2022/05/15 02:23:28;;;;;;;;;;;;;;;11.13;100.00;-25379.34;5094119;28;19920;-76
2022/05/15 02:25:54;;;;;;;;;;;;;;;11.17;100.00;-25380.38;5090216;28;19917;-75
2022/05/15 02:28:19;;;;;;;;;;;;;;;11.16;100.00;-25380.09;5092989;28;19916;-77
2022/05/15 02:30:46;;;;;;;;;;;;;;;11.15;100.00;-25379.78;5092532;28;19916;-75
2022/05/15 02:33:14;;;;;;;;;;;;;;;11.07;100.00;-25377.59;5075382;28;20384;-76
2022/05/15 02:35:39;;;;;;;;;;;;;;;11.02;100.00;-25376.00;5092949;28;19916;-76
2022/05/15 02:38:05;;;;;;;;;;;;;;;10.98;100.00;-25374.81;5092482;28;19928;-75
2022/05/15 02:40:31;;;;;;;;;;;;;;;11.02;100.00;-25376.00;5092446;28;20296;-76
2022/05/15 02:42:57;;;;;;;;;;;;;;;10.99;100.00;-25375.09;5092685;28;19922;-75
2022/05/15 02:45:23;;;;;;;;;;;;;;;10.98;100.00;-25374.81;5092564;28;20006;-75
2022/05/15 02:47:48;;;;;;;;;;;;;;;10.99;100.00;-25375.09;5092185;28;20023;-76
2022/05/15 02:53:02;;;;;;;;;;;;;;;11.00;100.00;-25375.41;5093359;28;19923;-76
2022/05/15 02:55:28;;;;;;;;;;;;;;;11.02;100.00;-25376.13;5075969;28;20390;-78
2022/05/15 02:57:54;;;;;;;;;;;;;;;11.03;100.00;-25376.28;5076297;28;20011;-77
2022/05/15 03:00:20;;;;;;;;;;;;;;;11.03;100.00;-25374.38;5092946;28;19916;-79
2022/05/15 03:02:45;;;;;;;;;;;;;;;10.99;100.00;-25373.34;5094327;28;19916;-78
2022/05/15 03:05:12;;;;;;;;;;;;;;;10.96;100.00;-25045.88;5093089;28;20037;-76
2022/05/15 03:07:38;;;;;;;;;;;;;;;10.98;100.00;-24719.81;5093648;28;19935;-76
2022/05/15 03:10:04;;;;;;;;;;;;;;;10.97;100.00;-24066.19;5092962;28;19920;-77
2022/05/15 03:12:29;;;;;;;;;;;;;;;10.89;100.00;-23737.50;5091630;28;19912;-78
2022/05/15 03:14:57;;;;;;;;;;;;;;;10.89;100.00;-24390.81;5093927;28;20086;-78
2022/05/15 03:17:22;;;;;;;;;;;;;;;10.88;100.00;-24717.00;5093852;28;19961;-76
2022/05/15 03:19:47;;;;;;;;;;;;;;;10.85;100.00;-24389.56;5092770;28;20408;-78
2022/05/15 03:22:13;;;;;;;;;;;;;;;10.80;100.00;-25041.25;5092331;28;19931;-77
2022/05/15 03:24:40;;;;;;;;;;;;;;;10.74;100.00;-25366.16;5092177;28;20357;-78
2022/05/15 03:27:06;;;;;;;;;;;;;;;10.73;100.00;-25367.91;5092454;28;19946;-78
2022/05/15 03:29:31;;;;;;;;;;;;;;;10.69;100.00;-25366.75;5092817;28;19916;-79
2022/05/15 03:31:57;;;;;;;;;;;;;;;10.67;100.00;-25366.16;5092845;28;20287;-77
2022/05/15 03:34:22;;;;;;;;;;;;;;;10.64;100.00;-25365.13;5092893;28;19987;-79
2022/05/15 03:36:48;;;;;;;;;;;;;;;10.59;100.00;-25363.81;5092307;28;19912;-78
2022/05/15 03:39:14;;;;;;;;;;;;;;;10.63;100.00;-25365.00;5092434;28;19959;-79
2022/05/15 03:41:42;;;;;;;;;;;;;;;10.63;100.00;-25365.00;5092125;28;20611;-79
2022/05/15 03:44:10;;;;;;;;;;;;;;;10.67;100.00;-25366.00;5092832;28;19916;-78
2022/05/15 03:46:37;;;;;;;;;;;;;;;10.69;100.00;-25366.59;5092775;28;19923;-79
2022/05/15 03:49:02;;;;;;;;;;;;;;;10.68;100.00;-25364.53;5091710;28;19920;-78
2022/05/15 03:51:28;;;;;;;;;;;;;;;10.70;100.00;-25038.53;5092386;28;20357;-75
2022/05/15 03:53:53;;;;;;;;;;;;;;;10.71;100.00;-24385.81;5091362;28;20318;-78
2022/05/15 03:56:49;;;;;;;;;;;;;;;10.71;100.00;-24712.47;5091583;28;19968;-75
2022/05/15 03:59:04;;;;;;;;;;;;;;;10.70;100.00;-24385.53;5092647;28;19946;-79
2022/05/15 04:01:30;;;;;;;;;;;;;;;10.67;100.00;-24384.69;5075062;28;19924;-78
2022/05/15 04:03:57;;;;;;;;;;;;;;;10.74;100.00;-23406.88;5091665;28;19916;-79
2022/05/15 04:06:23;;;;;;;;;;;;;;;10.85;100.00;-22429.56;5092107;28;19976;-79
2022/05/15 04:08:48;;;;;;;;;;;;;;;10.86;100.00;-21776.06;5091797;28;19952;-77
2022/05/15 04:11:13;;;;;;;;;;;;;;;10.87;100.00;-21122.69;5075182;28;19947;-78
2022/05/15 04:13:39;;;;;;;;;;;;;;;10.93;100.00;-20143.00;5091865;28;19912;-79
2022/05/15 04:16:04;;;;;;;;;;;;;;;10.95;100.00;-19162.25;5091086;28;20288;-78
2022/05/15 04:18:30;;;;;;;;;;;;;;;10.98;100.00;-18508.44;5091584;28;19966;-77
2022/05/15 04:20:56;;;;;;;;;;;;;;;11.19;100.00;-17857.63;5091708;28;19924;-78
2022/05/15 04:23:21;;;;;;;;;;;;;;;11.67;100.00;-16227.25;5091746;28;19916;-76
2022/05/15 04:25:46;;;;;;;;;;;;;;;12.05;100.00;-11638.78;5093356;28;19912;-76
2022/05/15 04:28:11;;;;;;;;;;;;;;;12.55;100.00;-5723.09;5096042;28;19919;-76
2022/05/15 04:30:37;;;;;;;;;;;;;;;13.00;100.00;2850.03;5095816;28;19942;-76
2022/05/15 04:33:03;;;;;;;;;;;;;;;13.36;100.00;14763.06;5095005;28;19916;-76
2022/05/15 04:35:28;;;;;;;;;;;;;;;13.95;100.00;27736.91;5095301;28;19916;-76
2022/05/15 04:37:53;;;;;;;;;;;;;;;14.39;100.00;46449.34;5094169;28;19916;-75
2022/05/15 04:40:20;;;;;;;;;;;;;;;14.17;100.00;74618.50;5077596;28;20022;-76
2022/05/15 04:42:46;;;;;;;;;;;;;;;14.78;100.00;85837.75;5094731;28;20368;-77
2022/05/15 04:45:11;;;;;;;;;;;;;;;14.52;100.00;104426.16;5094378;28;19923;-76
2022/05/15 04:47:36;;;;;;;;;;;;;;;14.18;100.00;96570.56;5094659;28;19923;-76
2022/05/15 04:50:02;;;;;;;;;;;;;;;13.65;100.00;92424.38;5094172;28;20372;-75
2022/05/15 04:52:27;;;;;;;;;;;;;;;13.00;100.00;69090.25;5094303;28;19916;-76
2022/05/15 04:54:53;;;;;;;;;;;;;;;13.04;100.00;51008.84;5094282;28;19924;-75
2022/05/15 04:57:18;;;;;;;;;;;;;;;13.06;100.00;47670.34;5094535;28;19912;-76
2022/05/15 04:59:43;;;;;;;;;;;;;;;12.96;100.00;43991.13;5095054;28;19916;-75
2022/05/15 05:02:09;;;;;;;;;;;;;;;12.72;100.00;42304.59;5094402;28;19938;-75
2022/05/15 05:04:36;;;;;;;;;;;;;;;12.58;100.00;34970.16;5093645;28;20433;-76
2022/05/15 05:07:01;;;;;;;;;;;;;;;12.45;100.00;28980.97;5093982;28;20336;-74
2022/05/15 05:09:26;;;;;;;;;;;;;;;12.64;100.00;26667.72;5095283;28;19916;-75
2022/05/15 05:11:52;;;;;;;;;;;;;;;12.64;100.00;25672.44;5095162;28;20548;-76
2022/05/15 05:14:19;;;;;;;;;;;;;;;12.72;100.00;21696.25;5094038;28;19916;-75
2022/05/15 05:16:44;;;;;;;;;;;;;;;13.37;100.00;26375.13;5093776;28;19920;-76
2022/05/15 05:19:09;;;;;;;;;;;;;;;13.73;100.00;33382.16;5094310;28;19949;-75
2022/05/15 05:21:35;;;;;;;;;;;;;;;13.84;100.00;42727.50;5093302;28;20540;-75
2022/05/15 05:24:00;;;;;;;;;;;;;;;13.51;100.00;49381.22;5094188;28;20288;-75
2022/05/15 05:26:25;;;;;;;;;;;;;;;13.76;100.00;47732.31;5094181;28;19923;-76
2022/05/15 05:28:50;;;;;;;;;;;;;;;13.80;100.00;50410.78;5093477;28;19917;-76
2022/05/15 05:31:16;;;;;;;;;;;;;;;13.76;100.00;55428.22;5094426;28;20259;-75
2022/05/15 05:33:41;;;;;;;;;;;;;;;14.46;100.00;58852.94;5093708;28;19911;-76
2022/05/15 05:36:07;;;;;;;;;;;;;;;14.52;100.00;75001.38;5092761;28;19969;-78
2022/05/15 05:38:33;;;;;;;;;;;;;;;14.60;100.00;75685.66;5093905;28;19920;-76
2022/05/15 05:40:58;;;;;;;;;;;;;;;15.64;100.00;102246.88;5093399;28;19916;-76
2022/05/15 05:43:23;;;;;;;;;;;;;;;15.67;100.00;146675.06;5076287;28;19924;-76
2022/05/15 05:45:49;;;;;;;;;;;;;;;14.64;100.00;138198.53;5093173;28;19920;-77
2022/05/15 05:48:14;;;;;;;;;;;;;;;14.86;100.00;110266.03;5076530;28;19920;-77
2022/05/15 05:50:39;;;;;;;;;;;;;;;15.33;100.00;146590.81;5092842;28;19924;-76
2022/05/15 05:53:06;;;;;;;;;;;;;;;15.22;100.00;146564.00;5094173;28;19924;-78
2022/05/15 05:55:32;;;;;;;;;;;;;;;16.00;100.00;146758.09;5092713;28;20049;-77
2022/05/15 05:57:57;;;;;;;;;;;;;;;15.85;100.00;146719.78;5093837;28;20139;-77
2022/05/15 06:00:24;;;;;;;;;;;;;;;15.96;100.00;146747.91;5093976;28;19919;-78
2022/05/15 06:02:51;;;;;;;;;;;;;;;15.05;100.00;146523.13;5093154;28;19920;-77
2022/05/15 06:05:19;;;;;;;;;;;;;;;15.18;100.00;146555.06;5093993;28;20018;-76
2022/05/15 06:07:45;;;;;;;;;;;;;;;14.77;100.00;146452.97;5094066;28;19927;-77
2022/05/15 06:10:12;;;;;;;;;;;;;;;14.49;100.00;146382.75;5093088;28;19916;-78
2022/05/15 06:12:40;;;;;;;;;;;;;;;14.99;100.00;146506.56;5076387;28;19916;-78
2022/05/15 06:15:06;;;;;;;;;;;;;;;14.60;100.00;146410.84;5093419;28;19951;-74
2022/05/15 06:17:31;;;;;;;;;;;;;;;14.62;100.00;146416.00;5094131;28;20387;-77
2022/05/15 06:19:57;;;;;;;;;;;;;;;15.11;100.00;146535.94;5093294;28;19923;-75
2022/05/15 06:22:22;;;;;;;;;;;;;;;15.27;100.00;146576.75;5092924;28;20380;-77
2022/05/15 06:24:48;;;;;;;;;;;;;;;15.12;100.00;146538.44;5092554;28;19919;-77
2022/05/15 06:27:14;;;;;;;;;;;;;;;14.97;100.00;146501.47;5092727;28;19920;-77
2022/05/15 06:29:40;;;;;;;;;;;;;;;14.58;100.00;146405.72;5076882;28;19970;-78
2022/05/15 06:32:05;;;;;;;;;;;;;;;14.83;100.00;136189.09;5093417;28;19950;-77
2022/05/15 06:34:32;;;;;;;;;;;;;;;15.47;100.00;142895.59;5094044;28;20408;-77
2022/05/15 06:36:58;;;;;;;;;;;;;;;15.45;100.00;146621.44;5076784;28;20027;-77
2022/05/15 06:39:23;;;;;;;;;;;;;;;15.46;100.00;146622.69;5091360;28;20006;-77
2022/05/15 06:41:50;;;;;;;;;;;;;;;15.22;100.00;146565.25;5093551;28;19920;-77
2022/05/15 06:44:18;;;;;;;;;;;;;;;15.38;100.00;146604.84;5091958;28;20284;-78
2022/05/15 06:46:45;;;;;;;;;;;;;;;15.41;100.00;146612.53;5090113;28;19927;-77
2022/05/15 06:49:11;;;;;;;;;;;;;;;15.62;100.00;146664.84;5092170;28;19916;-78
2022/05/15 06:51:36;;;;;;;;;;;;;;;15.72;100.00;146689.13;5091944;28;19923;-78
2022/05/15 06:54:02;;;;;;;;;;;;;;;16.10;100.00;146782.38;5092012;28;19916;-77
2022/05/15 06:59:11;;;;;;;;;;;;;;;16.53;100.00;146889.69;5093227;28;19922;-78
2022/05/15 07:01:37;;;;;;;;;;;;;;;16.02;100.00;146763.22;5091750;28;20019;-77
2022/05/15 07:04:02;;;;;;;;;;;;;;;15.88;100.00;146727.44;5091841;28;20314;-78
2022/05/15 07:06:27;;;;;;;;;;;;;;;16.09;100.00;146781.06;5091240;28;19916;-77
2022/05/15 07:08:54;;;;;;;;;;;;;;;16.75;100.00;146944.63;5074332;28;19924;-78
2022/05/15 07:11:19;;;;;;;;;;;;;;;17.52;100.00;147136.38;5091926;28;19920;-77
2022/05/15 07:13:44;;;;;;;;;;;;;;;18.84;100.00;147463.88;5090450;28;20054;-76
2022/05/15 07:16:11;;;;;;;;;;;;;;;19.99;100.00;147750.72;5091346;28;19916;-76
2022/05/15 07:18:37;;;;;;;;;;;;;;;20.21;100.00;147805.84;5074653;28;19928;-76
2022/05/15 07:21:03;;;;;;;;;;;;;;;20.35;100.00;147840.38;5091342;28;19916;-76
2022/05/15 07:23:28;;;;;;;;;;;;;;;20.29;100.00;147825.06;5091044;28;20261;-75
2022/05/15 07:25:55;;;;;;;;;;;;;;;20.57;100.00;147894.19;5090212;28;19923;-74
2022/05/15 07:28:20;;;;;;;;;;;;;;;20.46;100.00;147867.28;5090277;28;20422;-75
2022/05/15 07:30:45;;;;;;;;;;;;;;;20.46;100.00;147867.28;5090839;28;19998;-76
2022/05/15 07:33:11;;;;;;;;;;;;;;;20.42;100.00;147857.06;5090703;28;20015;-75
2022/05/15 07:35:36;;;;;;;;;;;;;;;20.57;100.00;147894.19;5090068;28;19916;-77
2022/05/15 07:38:02;;;;;;;;;;;;;;;21.83;100.00;148208.31;5089594;28;20390;-74
2022/05/15 07:40:27;;;;;;;;;;;;;;;21.33;100.00;148085.22;5073584;28;20362;-76
2022/05/15 07:42:52;;;;;;;;;;;;;;;21.02;100.00;148007.06;5089485;28;20346;-75
2022/05/15 07:45:18;;;;;;;;;;;;;;;21.50;100.00;148126.28;5090390;28;19923;-77
2022/05/15 07:47:43;;;;;;;;;;;;;;;21.65;100.00;148164.75;5090150;28;19920;-76
2022/05/15 07:50:08;;;;;;;;;;;;;;;20.94;100.00;147986.50;5090236;28;19916;-77
2022/05/15 07:52:34;;;;;;;;;;;;;;;21.31;100.00;148080.06;5089864;28;20017;-76
2022/05/15 07:54:59;;;;;;;;;;;;;;;20.95;100.00;147989.09;5090020;28;19939;-75
2022/05/15 07:57:24;;;;;;;;;;;;;;;21.34;100.00;148086.50;5090700;28;19920;-78
2022/05/15 07:59:50;;;;;;;;;;;;;;;21.17;100.00;148045.47;5091098;28;19916;-78
2022/05/15 08:02:16;;;;;;;;;;;;;;;20.96;100.00;147991.66;5091338;28;19977;-76
2022/05/15 08:10:09;;;;;;;;;;;;;;;22.10;100.00;148275.06;5091647;28;19923;-78
2022/05/15 08:12:35;;;;;;;;;;;;;;;21.44;100.00;148112.16;5091489;28;19912;-77
2022/05/15 08:15:04;;;;;;;;;;;;;;;21.93;100.00;148232.72;5090967;28;19916;-79
2022/05/15 08:17:29;;;;;;;;;;;;;;;21.54;100.00;148135.28;5092166;28;20310;-76
2022/05/15 08:25:44;;;;;;;;;;;;;;;22.43;100.00;148357.19;5029700;28;20393;-76
2022/05/15 08:28:10;;;;;;;;;;;;;;;22.39;100.00;148348.22;5029973;28;19943;-77
2022/05/15 08:30:35;;;;;;;;;;;;;;;22.11;100.00;148277.59;5035263;28;19920;-77
2022/05/15 08:33:03;;;;;;;;;;;;;;;22.23;100.00;148309.69;5091063;28;20366;-79
2022/05/15 08:35:29;;;;;;;;;;;;;;;22.98;100.00;148494.44;5092134;28;19916;-78
2022/05/15 08:37:55;;;;;;;;;;;;;;;22.81;100.00;148453.41;5091333;28;19916;-77
2022/05/15 08:40:24;;;;;;;;;;;;;;;22.99;100.00;148497.03;5091318;28;19917;-78
2022/05/15 08:42:54;;;;;;;;;;;;;;;22.66;100.00;148414.91;5090811;28;20538;-77
2022/05/15 08:45:22;;;;;;;;;;;;;;;22.79;100.00;148448.25;5092408;28;19916;-77
2022/05/15 08:47:52;;;;;;;;;;;;;;;22.87;100.00;148467.50;5090849;28;19962;-78
2022/05/15 08:50:21;;;;;;;;;;;;;;;22.71;100.00;148429.00;5091304;28;19920;-78
2022/05/15 08:53:05;;;;;;;;;;;;;;;22.22;100.00;148307.09;5090991;28;19922;-77
2022/05/15 08:55:33;;;;;;;;;;;;;;;22.65;100.00;148412.34;5091817;28;20010;-75
2022/05/15 08:58:07;;;;;;;;;;;;;;;23.04;100.00;148509.84;5073585;28;19973;-78
2022/05/15 09:00:42;;;;;;;;;;;;;;;23.12;100.00;148530.47;5073056;28;19922;-75
2022/05/15 09:03:24;;;;;;;;;;;;;;;22.71;100.00;148427.75;5090722;28;19916;-76
2022/05/15 09:05:52;;;;;;;;;;;;;;;23.02;100.00;148506.00;5089402;28;20309;-75
2022/05/15 09:08:20;;;;;;;;;;;;;;;22.56;100.00;148391.81;5072787;28;19920;-79
2022/05/15 09:10:46;;;;;;;;;;;;;;;22.83;100.00;148457.25;5093229;28;19916;-75
2022/05/15 09:13:21;;;;;;;;;;;;;;;22.63;100.00;148407.22;5094712;28;20334;-76
2022/05/15 09:15:57;;;;;;;;;;;;;;;22.40;100.00;148350.75;5093617;28;19923;-76
2022/05/15 09:18:23;;;;;;;;;;;;;;;22.85;100.00;148462.38;5093986;28;19920;-75
2022/05/15 09:20:57;;;;;;;;;;;;;;;22.67;100.00;148417.44;5092146;28;20274;-74
2022/05/15 09:23:29;;;;;;;;;;;;;;;22.20;100.00;148302.00;5076550;28;19927;-74
2022/05/15 09:26:14;;;;;;;;;;;;;;;22.28;100.00;148319.91;5093260;28;19916;-75
2022/05/15 09:28:46;;;;;;;;;;;;;;;22.56;100.00;148391.81;5074676;28;19923;-75
2022/05/15 09:31:42;;;;;;;;;;;;;;;22.59;100.00;148398.19;5076026;28;20276;-74
2022/05/15 09:34:21;;;;;;;;;;;;;;;22.42;100.00;148355.91;5074199;28;20257;-75
2022/05/15 09:36:47;;;;;;;;;;;;;;;22.97;100.00;148491.91;5076157;28;19916;-77
2022/05/15 09:39:35;;;;;;;;;;;;;;;22.83;100.00;148457.25;5094303;28;19928;-74
2022/05/15 09:44:45;;;;;;;;;;;;;;;21.96;100.00;148240.41;5093719;28;19923;-74
2022/05/15 09:47:10;;;;;;;;;;;;;;;22.04;100.00;148262.19;5093438;28;19912;-76
2022/05/15 09:49:37;;;;;;;;;;;;;;;22.73;100.00;148432.84;5075321;28;20367;-74
2022/05/15 09:52:10;;;;;;;;;;;;;;;22.52;100.00;148381.53;5093102;28;19912;-76
2022/05/15 09:54:37;;;;;;;;;;;;;;;22.13;100.00;148284.00;5092032;28;20403;-74
2022/05/15 09:57:14;;;;;;;;;;;;;;;22.73;100.00;148434.16;5076318;28;19921;-77
2022/05/15 09:59:40;;;;;;;;;;;;;;;22.93;100.00;148484.22;5075710;28;19956;-76
2022/05/15 10:02:15;;;;;;;;;;;;;;;22.80;100.00;148449.56;5092754;28;19955;-76
2022/05/15 10:04:46;;;;;;;;;;;;;;;22.49;100.00;148372.56;5075449;28;20315;-75
2022/05/15 10:07:27;;;;;;;;;;;;;;;23.28;100.00;148571.50;5092823;28;19931;-75
2022/05/15 10:09:52;;;;;;;;;;;;;;;23.24;100.00;148561.28;5075336;28;19920;-72
2022/05/15 10:12:27;;;;;;;;;;;;;;;23.15;100.00;148536.84;5092628;28;19916;-75
2022/05/15 10:15:11;;;;;;;;;;;;;;;22.96;100.00;148490.59;5088095;28;19955;-77
2022/05/15 10:17:42;;;;;;;;;;;;;;;22.99;100.00;148497.03;5093175;28;20007;-75
2022/05/15 10:20:19;;;;;;;;;;;;;;;23.30;100.00;148576.69;5093986;28;19916;-77
2022/05/15 10:22:58;;;;;;;;;;;;;;;23.66;100.00;148665.22;5092251;28;19971;-75
2022/05/15 10:25:36;;;;;;;;;;;;;;;23.61;100.00;148652.38;5092737;28;19924;-77
2022/05/15 10:28:20;;;;;;;;;;;;;;;23.69;100.00;148672.91;5092511;28;19966;-76
2022/05/15 10:30:52;;;;;;;;;;;;;;;23.18;100.00;148545.88;5093058;28;20347;-76
2022/05/15 10:33:19;;;;;;;;;;;;;;;23.62;100.00;148654.97;5092596;28;19917;-76
2022/05/15 10:35:50;;;;;;;;;;;;;;;23.83;100.00;148707.59;5089712;28;20308;-76
2022/05/15 10:38:42;;;;;;;;;;;;;;;23.96;100.00;148741.03;5074713;28;19927;-75
2022/05/15 10:41:10;;;;;;;;;;;;;;;23.90;100.00;148725.63;5037317;28;19928;-76
2022/05/15 10:43:41;;;;;;;;;;;;;;;23.90;100.00;148725.63;5075228;28;19927;-75
2022/05/15 10:46:13;;;;;;;;;;;;;;;23.84;100.00;148710.22;5093952;28;19916;-75
2022/05/15 10:48:41;;;;;;;;;;;;;;;23.62;100.00;148656.25;5092722;28;19980;-79
2022/05/15 10:51:22;;;;;;;;;;;;;;;23.69;100.00;148671.66;5076121;28;19916;-77
2022/05/15 10:57:27;;;;;;;;;;;;;;;23.51;100.00;148626.69;5093424;28;19974;-77
2022/05/15 11:00:05;;;;;;;;;;;;;;;23.66;100.00;148665.22;5094323;28;19924;-79
2022/05/15 11:02:50;;;;;;;;;;;;;;;23.73;100.00;148681.94;5075207;28;19920;-79
2022/05/15 11:05:15;;;;;;;;;;;;;;;23.88;100.00;148720.50;5093806;28;19916;-76
2022/05/15 11:07:46;;;;;;;;;;;;;;;23.38;100.00;148594.63;5092608;28;20395;-74
2022/05/15 11:10:15;;;;;;;;;;;;;;;23.51;100.00;148628.00;5075096;28;20006;-78
2022/05/15 11:12:44;;;;;;;;;;;;;;;24.05;100.00;148762.91;5090874;28;19912;-79
2022/05/15 11:15:18;;;;;;;;;;;;;;;24.01;100.00;148753.88;5093153;28;19931;-80
2022/05/15 11:17:57;;;;;;;;;;;;;;;23.64;100.00;148661.38;5074190;28;19993;-74
2022/05/15 11:20:25;;;;;;;;;;;;;;;23.46;100.00;148615.16;5092593;28;19916;-76
2022/05/15 11:23:24;;;;;;;;;;;;;;;23.75;100.00;148687.06;5092312;28;19935;-77
2022/05/15 11:25:52;;;;;;;;;;;;;;;23.67;100.00;148669.06;5019601;28;19920;-73
2022/05/15 11:28:27;;;;;;;;;;;;;;;24.20;100.00;148800.09;5092357;28;20058;-76
2022/05/15 11:31:00;;;;;;;;;;;;;;;24.30;100.00;148825.81;5090403;28;20029;-76
2022/05/15 11:33:33;;;;;;;;;;;;;;;24.10;100.00;148774.41;5090904;28;20009;-75
2022/05/15 11:36:12;;;;;;;;;;;;;;;23.92;100.00;148729.47;5092063;28;19922;-75
2022/05/15 11:38:48;;;;;;;;;;;;;;;24.00;100.00;148750.03;5090398;28;20011;-75
2022/05/15 11:41:34;;;;;;;;;;;;;;;23.88;100.00;148719.19;5091369;28;20061;-76
2022/05/15 11:44:00;;;;;;;;;;;;;;;23.72;100.00;148679.34;5055327;28;19917;-73
2022/05/15 11:46:44;;;;;;;;;;;;;;;23.57;100.00;148643.41;5090471;28;19916;-74
2022/05/15 11:49:14;;;;;;;;;;;;;;;23.77;100.00;148692.19;5073046;28;19916;-74
2022/05/15 11:51:40;;;;;;;;;;;;;;;24.18;100.00;148794.97;5090646;28;19916;-75
2022/05/15 11:54:07;;;;;;;;;;;;;;;24.11;100.00;148778.25;5090664;28;19919;-75
2022/05/15 11:56:35;;;;;;;;;;;;;;;23.82;100.00;148706.31;5091513;28;19938;-76
2022/05/15 11:59:06;;;;;;;;;;;;;;;23.98;100.00;148744.91;5074100;28;19912;-75
2022/05/15 12:01:32;;;;;;;;;;;;;;;23.99;100.00;148747.47;5091358;28;20236;-73
2022/05/15 12:04:01;;;;;;;;;;;;;;;23.79;100.00;148698.63;5073641;28;19916;-75
2022/05/15 12:06:28;;;;;;;;;;;;;;;23.66;100.00;148665.22;5091894;28;19912;-74
2022/05/15 12:09:12;;;;;;;;;;;;;;;23.69;100.00;148672.91;5090145;28;19920;-77
2022/05/15 12:11:37;;;;;;;;;;;;;;;23.90;100.00;148725.63;5091747;28;19998;-73
2022/05/15 12:14:23;;;;;;;;;;;;;;;23.74;100.00;148684.47;5090594;28;20410;-75
2022/05/15 12:16:54;;;;;;;;;;;;;;;24.00;100.00;148750.03;5073284;28;19920;-75
2022/05/15 12:19:26;;;;;;;;;;;;;;;24.59;100.00;148897.78;5092077;28;19916;-78
2022/05/15 12:21:53;;;;;;;;;;;;;;;24.74;100.00;148935.03;5090227;28;19916;-77
2022/05/15 12:24:27;;;;;;;;;;;;;;;24.77;100.00;148942.75;5091161;28;20560;-75
2022/05/15 12:26:59;;;;;;;;;;;;;;;24.65;100.00;148913.19;5090489;28;19917;-76
2022/05/15 12:29:38;;;;;;;;;;;;;;;24.89;100.00;148972.28;5091414;28;19920;-77
2022/05/15 12:32:17;;;;;;;;;;;;;;;25.16;100.00;149040.41;5090169;28;20070;-75
2022/05/15 12:34:48;;;;;;;;;;;;;;;24.73;100.00;148933.78;5090306;28;19916;-78
2022/05/15 12:37:19;;;;;;;;;;;;;;;25.19;100.00;149048.13;5090054;28;20244;-76
2022/05/15 12:39:46;;;;;;;;;;;;;;;25.11;100.00;149026.25;5091269;28;19946;-76
2022/05/15 12:42:18;;;;;;;;;;;;;;;25.25;100.00;149062.28;5090484;28;19923;-77
2022/05/15 12:44:44;;;;;;;;;;;;;;;25.00;100.00;148999.25;5092209;28;19927;-77
2022/05/15 12:47:19;;;;;;;;;;;;;;;24.66;100.00;148914.50;5077894;28;19920;-78
2022/05/15 12:49:45;;;;;;;;;;;;;;;24.69;100.00;148923.47;5094237;28;20087;-76
2022/05/15 12:52:14;;;;;;;;;;;;;;;24.97;100.00;148992.88;5095497;28;19917;-76
2022/05/15 12:54:45;;;;;;;;;;;;;;;25.27;100.00;149067.41;5094738;28;19923;-77
2022/05/15 12:57:12;;;;;;;;;;;;;;;25.34;100.00;149085.47;5094380;28;20011;-76